createdAt,value
2023-04-09T00:02:07.940Z,101255.00
2023-04-09T00:04:38.005Z,101261.00
2023-04-09T00:07:07.565Z,101257.00
2023-04-09T00:09:38.225Z,101252.00
2023-04-09T00:12:10.840Z,101247.00
2023-04-09T00:14:40.502Z,101242.00
2023-04-09T00:17:08.683Z,101239.00
2023-04-09T00:19:37.841Z,101239.00
2023-04-09T00:22:10.139Z,101236.00
2023-04-09T00:24:38.429Z,101241.00
2023-04-09T00:27:07.453Z,101230.00
2023-04-09T00:29:36.798Z,101235.00
2023-04-09T00:32:07.004Z,101235.00
2023-04-09T00:34:41.335Z,101236.00
2023-04-09T00:37:10.711Z,101251.00
2023-04-09T00:39:40.152Z,101245.00
2023-04-09T00:42:08.162Z,101244.00
2023-04-09T00:44:37.494Z,101245.00
2023-04-09T00:47:06.176Z,101245.00
2023-04-09T00:49:37.305Z,101235.00
2023-04-09T00:52:06.416Z,101239.00
2023-04-09T00:54:38.553Z,101237.00
2023-04-09T00:57:12.615Z,101232.00
2023-04-09T00:59:43.920Z,101231.00
2023-04-09T01:02:11.952Z,101227.00
2023-04-09T01:04:41.374Z,101231.00
2023-04-09T01:07:32.941Z,101227.00
2023-04-09T01:10:04.381Z,101235.00
2023-04-09T01:12:48.678Z,101230.00
2023-04-09T01:15:18.768Z,101228.00
2023-04-09T01:18:10.151Z,101226.00
2023-04-09T01:20:41.743Z,101225.00
2023-04-09T01:23:28.679Z,101222.00
2023-04-09T01:26:17.543Z,101230.00
2023-04-09T01:28:51.503Z,101231.00
2023-04-09T01:31:20.737Z,101229.00
2023-04-09T01:33:48.603Z,101223.00
2023-04-09T01:36:16.705Z,101213.00
2023-04-09T01:38:44.482Z,101219.00
2023-04-09T01:41:15.407Z,101209.00
2023-04-09T01:43:43.372Z,101218.00
2023-04-09T01:46:11.706Z,101217.00
2023-04-09T01:48:39.958Z,101212.00
2023-04-09T01:51:14.233Z,101210.00
2023-04-09T01:53:42.788Z,101215.00
2023-04-09T01:56:10.915Z,101210.00
2023-04-09T01:58:38.926Z,101225.00
2023-04-09T02:01:07.759Z,101211.00
2023-04-09T02:03:39.884Z,101210.00
2023-04-09T02:06:15.923Z,101219.00
2023-04-09T02:08:44.778Z,101210.00
2023-04-09T02:11:12.782Z,101212.00
2023-04-09T02:13:41.506Z,101216.00
2023-04-09T02:16:09.876Z,101212.00
2023-04-09T02:18:37.927Z,101214.00
2023-04-09T02:21:06.320Z,101216.00
2023-04-09T02:23:34.087Z,101221.00
2023-04-09T02:26:01.856Z,101225.00
2023-04-09T02:28:29.464Z,101225.00
2023-04-09T02:30:57.248Z,101214.00
2023-04-09T02:33:25.069Z,101226.00
2023-04-09T02:35:52.932Z,101226.00
2023-04-09T02:38:20.904Z,101216.00
2023-04-09T02:40:48.748Z,101223.00
2023-04-09T02:43:16.760Z,101224.00
2023-04-09T02:45:44.935Z,101224.00
2023-04-09T02:48:13.021Z,101230.00
2023-04-09T02:50:41.303Z,101220.00
2023-04-09T02:53:08.956Z,101218.00
2023-04-09T02:55:36.583Z,101218.00
2023-04-09T02:58:04.525Z,101213.00
2023-04-09T03:00:32.601Z,101220.00
2023-04-09T03:03:00.450Z,101221.00
2023-04-09T03:05:28.324Z,101215.00
2023-04-09T03:07:56.375Z,101218.00
2023-04-09T03:10:24.278Z,101213.00
2023-04-09T03:12:52.192Z,101208.00
2023-04-09T03:15:20.121Z,101206.00
2023-04-09T03:17:48.268Z,101208.00
2023-04-09T03:20:16.001Z,101210.00
2023-04-09T03:22:43.972Z,101205.00
2023-04-09T03:25:32.985Z,101204.00
2023-04-09T03:28:08.030Z,101202.00
2023-04-09T03:30:42.288Z,101203.00
2023-04-09T03:33:10.614Z,101195.00
2023-04-09T03:35:59.209Z,101207.00
2023-04-09T03:38:37.266Z,101202.00
2023-04-09T03:41:10.984Z,101204.00
2023-04-09T03:43:40.102Z,101203.00
2023-04-09T03:46:15.953Z,101203.00
2023-04-09T03:48:46.344Z,101200.00
2023-04-09T03:51:18.159Z,101206.00
2023-04-09T03:53:52.245Z,101205.00
2023-04-09T03:56:20.196Z,101201.00
2023-04-09T03:58:49.931Z,101199.00
2023-04-09T04:01:44.364Z,101202.00
2023-04-09T04:04:37.772Z,101202.00
2023-04-09T04:07:10.580Z,101206.00
2023-04-09T04:09:45.287Z,101207.00
2023-04-09T04:12:17.632Z,101208.00
2023-04-09T04:15:07.933Z,101210.00
2023-04-09T04:17:48.826Z,101208.00
2023-04-09T04:20:27.074Z,101199.00
2023-04-09T04:23:01.845Z,101211.00
2023-04-09T04:25:31.012Z,101211.00
2023-04-09T04:27:58.731Z,101213.00
2023-04-09T04:30:36.794Z,101213.00
2023-04-09T04:33:10.086Z,101223.00
2023-04-09T04:35:52.500Z,101220.00
2023-04-09T04:38:42.937Z,101228.00
2023-04-09T04:41:18.411Z,101221.00
2023-04-09T04:43:53.665Z,101221.00
2023-04-09T04:46:23.909Z,101219.00
2023-04-09T04:48:51.892Z,101215.00
2023-04-09T04:51:20.996Z,101216.00
2023-04-09T04:54:01.633Z,101222.00
2023-04-09T04:56:29.777Z,101216.00
2023-04-09T04:59:16.105Z,101217.00
2023-04-09T05:01:57.847Z,101222.00
2023-04-09T05:04:27.531Z,101222.00
2023-04-09T05:06:57.289Z,101225.00
2023-04-09T05:09:26.529Z,101220.00
2023-04-09T05:12:04.642Z,101219.00
2023-04-09T05:14:32.535Z,101224.00
2023-04-09T05:17:00.600Z,101226.00
2023-04-09T05:19:40.039Z,101219.00
2023-04-09T05:22:08.057Z,101235.00
2023-04-09T05:24:35.949Z,101239.00
2023-04-09T05:27:04.073Z,101240.00
2023-04-09T05:29:31.981Z,101224.00
2023-04-09T05:32:00.900Z,101233.00
2023-04-09T05:34:33.442Z,101230.00
2023-04-09T05:37:01.449Z,101237.00
2023-04-09T05:39:29.308Z,101239.00
2023-04-09T05:42:01.201Z,101234.00
2023-04-09T05:44:51.979Z,101239.00
2023-04-09T05:47:22.113Z,101241.00
2023-04-09T05:50:00.221Z,101244.00
2023-04-09T05:52:28.860Z,101236.00
2023-04-09T05:54:57.289Z,101237.00
2023-04-09T05:57:33.423Z,101227.00
2023-04-09T06:00:04.440Z,101237.00
2023-04-09T06:02:44.809Z,101240.00
2023-04-09T06:05:12.999Z,101239.00
2023-04-09T06:07:41.104Z,101240.00
2023-04-09T06:10:09.086Z,101240.00
2023-04-09T06:12:36.795Z,101245.00
2023-04-09T06:15:05.611Z,101239.00
2023-04-09T06:17:34.075Z,101246.00
2023-04-09T06:20:02.094Z,101246.00
2023-04-09T06:22:30.990Z,101249.00
2023-04-09T06:24:58.716Z,101248.00
2023-04-09T06:27:26.927Z,101251.00
2023-04-09T06:29:54.693Z,101255.00
2023-04-09T06:32:22.373Z,101251.00
2023-04-09T06:34:50.276Z,101264.00
2023-04-09T06:37:18.224Z,101262.00
2023-04-09T06:39:59.974Z,101268.00
2023-04-09T06:42:29.147Z,101265.00
2023-04-09T06:45:08.823Z,101261.00
2023-04-09T06:47:36.978Z,101261.00
2023-04-09T06:50:04.988Z,101270.00
2023-04-09T06:52:32.835Z,101256.00
2023-04-09T06:55:00.668Z,101265.00
2023-04-09T06:57:30.064Z,101269.00
2023-04-09T06:59:57.986Z,101265.00
2023-04-09T07:02:25.806Z,101268.00
2023-04-09T07:04:53.667Z,101268.00
2023-04-09T07:07:24.281Z,101268.00
2023-04-09T07:09:53.528Z,101264.00
2023-04-09T07:12:33.854Z,101265.00
2023-04-09T07:15:02.421Z,101269.00
2023-04-09T07:17:31.166Z,101267.00
2023-04-09T07:19:59.122Z,101273.00
2023-04-09T07:22:27.492Z,101267.00
2023-04-09T07:24:55.499Z,101275.00
2023-04-09T07:27:24.005Z,101268.00
2023-04-09T07:29:51.916Z,101278.00
2023-04-09T07:32:19.690Z,101275.00
2023-04-09T07:34:47.691Z,101263.00
2023-04-09T07:37:15.693Z,101269.00
2023-04-09T07:39:46.857Z,101273.00
2023-04-09T07:42:14.879Z,101273.00
2023-04-09T07:44:42.650Z,101271.00
2023-04-09T07:47:11.544Z,101274.00
2023-04-09T07:49:39.239Z,101277.00
2023-04-09T07:52:07.038Z,101283.00
2023-04-09T07:54:35.136Z,101276.00
2023-04-09T07:57:03.240Z,101276.00
2023-04-09T07:59:31.939Z,101276.00
2023-04-09T08:01:59.851Z,101279.00
2023-04-09T08:04:28.261Z,101277.00
2023-04-09T08:06:56.252Z,101277.00
2023-04-09T08:09:24.219Z,101281.00
2023-04-09T08:11:52.113Z,101272.00
2023-04-09T08:14:19.835Z,101274.00
2023-04-09T08:16:47.995Z,101277.00
2023-04-09T08:19:16.934Z,101267.00
2023-04-09T08:21:44.951Z,101277.00
2023-04-09T08:24:12.846Z,101269.00
2023-04-09T08:26:41.360Z,101273.00
2023-04-09T08:29:09.423Z,101277.00
2023-04-09T08:31:37.662Z,101269.00
2023-04-09T08:34:06.018Z,101271.00
2023-04-09T08:36:35.277Z,101265.00
2023-04-09T08:39:03.592Z,101266.00
2023-04-09T08:41:31.658Z,101261.00
2023-04-09T08:44:00.096Z,101261.00
2023-04-09T08:46:28.225Z,101271.00
2023-04-09T08:48:56.450Z,101273.00
2023-04-09T08:51:24.845Z,101262.00
2023-04-09T08:53:54.484Z,101262.00
2023-04-09T08:56:22.634Z,101266.00
2023-04-09T08:58:51.491Z,101271.00
2023-04-09T09:01:25.728Z,101259.00
2023-04-09T09:03:57.909Z,101263.00
2023-04-09T09:06:28.101Z,101264.00
2023-04-09T09:09:07.764Z,101257.00
2023-04-09T09:11:36.516Z,101257.00
2023-04-09T09:14:05.227Z,101256.00
2023-04-09T09:16:35.008Z,101260.00
2023-04-09T09:19:02.973Z,101261.00
2023-04-09T09:21:30.873Z,101260.00
2023-04-09T09:23:58.983Z,101266.00
2023-04-09T09:26:29.022Z,101267.00
2023-04-09T09:29:00.397Z,101261.00
2023-04-09T09:31:28.374Z,101255.00
2023-04-09T09:33:56.648Z,101264.00
2023-04-09T09:36:34.377Z,101266.00
2023-04-09T09:39:05.478Z,101264.00
2023-04-09T09:41:33.419Z,101269.00
2023-04-09T09:44:01.677Z,101267.00
2023-04-09T09:46:29.880Z,101266.00
2023-04-09T09:48:57.856Z,101265.00
2023-04-09T09:51:27.509Z,101264.00
2023-04-09T09:53:56.758Z,101262.00
2023-04-09T09:56:26.746Z,101256.00
2023-04-09T09:58:54.671Z,101268.00
2023-04-09T10:01:22.530Z,101259.00
2023-04-09T10:03:50.349Z,101258.00
2023-04-09T10:06:18.465Z,101260.00
2023-04-09T10:08:46.330Z,101259.00
2023-04-09T10:11:14.352Z,101266.00
2023-04-09T10:13:44.130Z,101260.00
2023-04-09T10:16:11.889Z,101254.00
2023-04-09T10:18:40.992Z,101264.00
2023-04-09T10:21:38.143Z,101259.00
2023-04-09T10:24:08.058Z,101245.00
2023-04-09T10:26:36.791Z,101248.00
2023-04-09T10:29:08.492Z,101246.00
2023-04-09T10:31:50.221Z,101245.00
2023-04-09T10:34:19.609Z,101247.00
2023-04-09T10:36:50.341Z,101243.00
2023-04-09T10:39:18.686Z,101234.00
2023-04-09T10:41:47.041Z,101233.00
2023-04-09T10:44:21.956Z,101233.00
2023-04-09T10:46:50.898Z,101228.00
2023-04-09T10:49:19.707Z,101237.00
2023-04-09T10:51:54.631Z,101229.00
2023-04-09T10:54:34.659Z,101234.00
2023-04-09T10:57:09.309Z,101227.00
2023-04-09T10:59:37.822Z,101220.00
2023-04-09T11:02:07.504Z,101219.00
2023-04-09T11:04:38.563Z,101227.00
2023-04-09T11:07:06.917Z,101221.00
2023-04-09T11:09:37.632Z,101211.00
2023-04-09T11:12:05.500Z,101211.00
2023-04-09T11:14:33.814Z,101212.00
2023-04-09T11:17:03.449Z,101196.00
2023-04-09T11:19:31.449Z,101204.00
2023-04-09T11:21:59.419Z,101206.00
2023-04-09T11:24:27.275Z,101210.00
2023-04-09T11:26:55.212Z,101197.00
2023-04-09T11:29:26.022Z,101203.00
2023-04-09T11:31:53.946Z,101200.00
2023-04-09T11:34:21.826Z,101205.00
2023-04-09T11:36:49.844Z,101191.00
2023-04-09T11:39:18.020Z,101193.00
2023-04-09T11:41:45.932Z,101194.00
2023-04-09T11:44:14.152Z,101190.00
2023-04-09T11:46:42.284Z,101201.00
2023-04-09T11:49:10.044Z,101191.00
2023-04-09T11:51:37.940Z,101195.00
2023-04-09T11:54:05.961Z,101193.00
2023-04-09T11:56:36.153Z,101196.00
2023-04-09T11:59:04.163Z,101188.00
2023-04-09T12:01:35.134Z,101178.00
2023-04-09T12:04:03.614Z,101182.00
2023-04-09T12:06:32.064Z,101183.00
2023-04-09T12:09:00.162Z,101187.00
2023-04-09T12:11:32.077Z,101188.00
2023-04-09T12:14:00.564Z,101183.00
2023-04-09T12:16:30.256Z,101178.00
2023-04-09T12:19:01.590Z,101177.00
2023-04-09T12:21:48.215Z,101179.00
2023-04-09T12:24:17.896Z,101177.00
2023-04-09T12:26:46.457Z,101174.00
2023-04-09T12:29:18.205Z,101169.00
2023-04-09T12:31:46.206Z,101178.00
2023-04-09T12:34:14.593Z,101159.00
2023-04-09T12:36:42.718Z,101159.00
2023-04-09T12:39:10.774Z,101157.00
2023-04-09T12:41:38.525Z,101155.00
2023-04-09T12:44:07.585Z,101160.00
2023-04-09T12:46:35.464Z,101141.00
2023-04-09T12:49:03.405Z,101144.00
2023-04-09T12:51:31.132Z,101160.00
2023-04-09T12:53:59.129Z,101150.00
2023-04-09T12:56:29.735Z,101149.00
2023-04-09T12:58:57.733Z,101139.00
2023-04-09T13:01:25.528Z,101142.00
2023-04-09T13:03:53.737Z,101128.00
2023-04-09T13:06:23.185Z,101142.00
2023-04-09T13:08:51.114Z,101142.00
2023-04-09T13:11:18.928Z,101139.00
2023-04-09T13:13:47.529Z,101137.00
2023-04-09T13:16:15.257Z,101132.00
2023-04-09T13:18:43.220Z,101136.00
2023-04-09T13:21:11.295Z,101134.00
2023-04-09T13:23:39.215Z,101131.00
2023-04-09T13:26:08.309Z,101130.00
2023-04-09T13:28:36.724Z,101136.00
2023-04-09T13:31:05.656Z,101130.00
2023-04-09T13:33:33.680Z,101134.00
2023-04-09T13:36:01.667Z,101127.00
2023-04-09T13:38:29.558Z,101130.00
2023-04-09T13:40:57.553Z,101121.00
2023-04-09T13:43:28.434Z,101118.00
2023-04-09T13:45:56.267Z,101116.00
2023-04-09T13:48:24.471Z,101113.00
2023-04-09T13:50:52.342Z,101117.00
2023-04-09T13:53:20.596Z,101105.00
2023-04-09T13:55:48.483Z,101107.00
2023-04-09T13:58:16.785Z,101111.00
2023-04-09T14:00:45.248Z,101100.00
2023-04-09T14:03:15.000Z,101093.00
2023-04-09T14:05:43.172Z,101092.00
2023-04-09T14:08:12.384Z,101095.00
2023-04-09T14:10:40.564Z,101093.00
2023-04-09T14:13:10.863Z,101092.00
2023-04-09T14:15:39.863Z,101090.00
2023-04-09T14:18:07.854Z,101099.00
2023-04-09T14:20:36.416Z,101086.00
2023-04-09T14:23:04.378Z,101087.00
2023-04-09T14:25:32.488Z,101086.00
2023-04-09T14:28:00.755Z,101084.00
2023-04-09T14:30:31.920Z,101079.00
2023-04-09T14:33:00.126Z,101083.00
2023-04-09T14:35:28.009Z,101084.00
2023-04-09T14:37:55.852Z,101083.00
2023-04-09T14:40:23.912Z,101085.00
2023-04-09T14:42:51.630Z,101076.00
2023-04-09T14:45:19.763Z,101088.00
2023-04-09T14:47:47.899Z,101061.00
2023-04-09T14:50:16.003Z,101074.00
2023-04-09T14:52:45.606Z,101069.00
2023-04-09T14:55:14.321Z,101073.00
2023-04-09T14:57:42.755Z,101059.00
2023-04-09T15:00:11.855Z,101064.00
2023-04-09T15:02:40.130Z,101065.00
2023-04-09T15:05:08.957Z,101064.00
2023-04-09T15:07:37.071Z,101063.00
2023-04-09T15:10:05.080Z,101054.00
2023-04-09T15:12:33.487Z,101057.00
2023-04-09T15:15:01.764Z,101069.00
2023-04-09T15:17:30.891Z,101068.00
2023-04-09T15:19:58.887Z,101069.00
2023-04-09T15:22:26.733Z,101067.00
2023-04-09T15:24:54.752Z,101062.00
2023-04-09T15:27:22.585Z,101068.00
2023-04-09T15:29:50.614Z,101058.00
2023-04-09T15:32:19.329Z,101062.00
2023-04-09T15:34:47.798Z,101063.00
2023-04-09T15:37:15.934Z,101048.00
2023-04-09T15:39:44.290Z,101056.00
2023-04-09T15:42:13.558Z,101047.00
2023-04-09T15:44:42.564Z,101050.00
2023-04-09T15:47:10.665Z,101042.00
2023-04-09T15:49:39.164Z,101050.00
2023-04-09T15:52:07.649Z,101043.00
2023-04-09T15:54:35.496Z,101046.00
2023-04-09T15:57:04.407Z,101051.00
2023-04-09T15:59:32.234Z,101043.00
2023-04-09T16:02:00.269Z,101046.00
2023-04-09T16:04:28.297Z,101047.00
2023-04-09T16:06:56.568Z,101043.00
2023-04-09T16:09:24.466Z,101030.00
2023-04-09T16:11:52.292Z,101037.00
2023-04-09T16:14:20.327Z,101038.00
2023-04-09T16:16:50.202Z,101043.00
2023-04-09T16:19:18.443Z,101044.00
2023-04-09T16:21:46.683Z,101036.00
2023-04-09T16:24:14.768Z,101034.00
2023-04-09T16:26:43.467Z,101040.00
2023-04-09T16:29:11.633Z,101038.00
2023-04-09T16:31:39.504Z,101039.00
2023-04-09T16:34:07.661Z,101043.00
2023-04-09T16:36:38.491Z,101037.00
2023-04-09T16:39:06.907Z,101043.00
2023-04-09T16:41:36.929Z,101026.00
2023-04-09T16:44:05.129Z,101036.00
2023-04-09T16:46:33.086Z,101042.00
2023-04-09T16:49:00.848Z,101036.00
2023-04-09T16:51:28.605Z,101036.00
2023-04-09T16:53:56.672Z,101032.00
2023-04-09T16:56:24.547Z,101027.00
2023-04-09T16:58:52.853Z,101033.00
2023-04-09T17:01:20.924Z,101020.00
2023-04-09T17:03:49.880Z,101028.00
2023-04-09T17:06:18.271Z,101028.00
2023-04-09T17:08:46.687Z,101028.00
2023-04-09T17:11:16.502Z,101017.00
2023-04-09T17:13:44.899Z,101016.00
2023-04-09T17:16:13.010Z,101022.00
2023-04-09T17:18:40.682Z,101022.00
2023-04-09T17:21:08.725Z,101015.00
2023-04-09T17:23:37.306Z,101017.00
2023-04-09T17:26:05.131Z,101010.00
2023-04-09T17:28:32.933Z,101017.00
2023-04-09T17:31:00.811Z,101018.00
2023-04-09T17:33:28.656Z,101012.00
2023-04-09T17:35:57.952Z,101020.00
2023-04-09T17:38:27.268Z,101022.00
2023-04-09T17:40:55.361Z,101024.00
2023-04-09T17:43:24.840Z,101033.00
2023-04-09T17:45:52.748Z,101023.00
2023-04-09T17:48:20.719Z,101022.00
2023-04-09T17:50:48.914Z,101024.00
2023-04-09T17:53:16.858Z,101019.00
2023-04-09T17:55:48.642Z,101016.00
2023-04-09T17:58:16.765Z,101021.00
2023-04-09T18:00:44.782Z,101025.00
2023-04-09T18:03:12.933Z,101013.00
2023-04-09T18:05:41.438Z,101018.00
2023-04-09T18:08:09.402Z,101024.00
2023-04-09T18:10:37.256Z,101032.00
2023-04-09T18:13:05.072Z,101038.00
2023-04-09T18:15:32.796Z,101043.00
2023-04-09T18:18:00.729Z,101044.00
2023-04-09T18:20:28.712Z,101043.00
2023-04-09T18:22:56.593Z,101042.00
2023-04-09T18:25:24.612Z,101039.00
2023-04-09T18:27:52.476Z,101040.00
2023-04-09T18:30:20.651Z,101035.00
2023-04-09T18:32:48.536Z,101045.00
2023-04-09T18:35:17.700Z,101039.00
2023-04-09T18:37:46.126Z,101044.00
2023-04-09T18:40:18.355Z,101055.00
2023-04-09T18:42:55.473Z,101053.00
2023-04-09T18:45:23.727Z,101046.00
2023-04-09T18:47:52.495Z,101049.00
2023-04-09T18:50:20.655Z,101053.00
2023-04-09T18:52:48.687Z,101052.00
2023-04-09T18:55:17.373Z,101057.00
2023-04-09T18:57:47.593Z,101052.00
2023-04-09T19:00:15.770Z,101058.00
2023-04-09T19:02:44.052Z,101054.00
2023-04-09T19:05:12.252Z,101063.00
2023-04-09T19:07:40.217Z,101066.00
2023-04-09T19:10:08.288Z,101064.00
2023-04-09T19:12:36.496Z,101062.00
2023-04-09T19:15:05.139Z,101062.00
2023-04-09T19:17:34.534Z,101070.00
2023-04-09T19:20:04.748Z,101077.00
2023-04-09T19:22:33.099Z,101070.00
2023-04-09T19:25:01.113Z,101072.00
2023-04-09T19:27:29.285Z,101068.00
2023-04-09T19:29:59.040Z,101076.00
2023-04-09T19:32:26.733Z,101071.00
2023-04-09T19:34:54.709Z,101081.00
2023-04-09T19:37:25.865Z,101075.00
2023-04-09T19:39:54.259Z,101074.00
2023-04-09T19:42:22.160Z,101067.00
2023-04-09T19:44:50.072Z,101069.00
2023-04-09T19:47:18.288Z,101069.00
2023-04-09T19:49:46.488Z,101056.00
2023-04-09T19:52:14.189Z,101060.00
2023-04-09T19:54:42.081Z,101055.00
2023-04-09T19:57:09.973Z,101060.00
2023-04-09T19:59:40.168Z,101050.00
2023-04-09T20:02:07.866Z,101058.00
2023-04-09T20:04:35.552Z,101059.00
2023-04-09T20:07:04.501Z,101055.00
2023-04-09T20:09:32.560Z,101055.00
2023-04-09T20:12:04.694Z,101054.00
2023-04-09T20:14:32.643Z,101043.00
2023-04-09T20:17:00.431Z,101050.00
2023-04-09T20:19:28.417Z,101051.00
2023-04-09T20:21:56.312Z,101051.00
2023-04-09T20:24:26.557Z,101050.00
2023-04-09T20:26:54.757Z,101053.00
2023-04-09T20:29:22.780Z,101056.00
2023-04-09T20:31:50.982Z,101046.00
2023-04-09T20:34:18.955Z,101053.00
2023-04-09T20:36:48.174Z,101053.00
2023-04-09T20:39:16.605Z,101057.00
2023-04-09T20:41:44.436Z,101064.00
2023-04-09T20:44:12.349Z,101061.00
2023-04-09T20:46:40.352Z,101052.00
2023-04-09T20:49:11.251Z,101058.00
2023-04-09T20:51:39.401Z,101059.00
2023-04-09T20:54:07.146Z,101056.00
2023-04-09T20:56:35.250Z,101047.00
2023-04-09T20:59:04.030Z,101051.00
2023-04-09T21:01:32.609Z,101047.00
2023-04-09T21:04:00.625Z,101046.00
2023-04-09T21:06:28.747Z,101039.00
2023-04-09T21:08:57.911Z,101042.00
2023-04-09T21:11:26.546Z,101040.00
2023-04-09T21:13:55.597Z,101047.00
2023-04-09T21:16:23.948Z,101047.00
2023-04-09T21:18:51.864Z,101049.00
2023-04-09T21:21:19.952Z,101040.00
2023-04-09T21:23:47.705Z,101054.00
2023-04-09T21:26:15.662Z,101060.00
2023-04-09T21:28:43.790Z,101049.00
2023-04-09T21:31:12.417Z,101063.00
2023-04-09T21:33:40.761Z,101057.00
2023-04-09T21:36:08.836Z,101056.00
2023-04-09T21:38:36.780Z,101060.00
2023-04-09T21:41:04.958Z,101059.00
2023-04-09T21:43:33.000Z,101066.00
2023-04-09T21:46:01.049Z,101063.00
2023-04-09T21:48:31.029Z,101062.00
2023-04-09T21:50:59.320Z,101055.00
2023-04-09T21:53:27.453Z,101058.00
2023-04-09T21:55:56.231Z,101044.00
2023-04-09T21:58:24.223Z,101055.00
2023-04-09T22:00:52.476Z,101055.00
2023-04-09T22:03:20.541Z,101051.00
2023-04-09T22:05:48.624Z,101054.00
2023-04-09T22:08:17.492Z,101059.00
2023-04-09T22:10:45.371Z,101057.00
2023-04-09T22:13:13.655Z,101052.00
2023-04-09T22:15:42.266Z,101047.00
2023-04-09T22:18:10.770Z,101055.00
2023-04-09T22:20:41.388Z,101047.00
2023-04-09T22:23:11.366Z,101058.00
2023-04-09T22:25:39.762Z,101052.00
2023-04-09T22:28:08.582Z,101050.00
2023-04-09T22:30:36.738Z,101049.00
2023-04-09T22:33:04.748Z,101056.00
2023-04-09T22:35:32.710Z,101052.00
2023-04-09T22:38:00.580Z,101055.00
2023-04-09T22:40:28.579Z,101057.00
2023-04-09T22:42:56.725Z,101054.00
2023-04-09T22:45:28.081Z,101047.00
2023-04-09T22:47:56.119Z,101056.00
2023-04-09T22:50:26.548Z,101058.00
2023-04-09T22:52:54.818Z,101059.00
2023-04-09T22:55:23.828Z,101059.00
2023-04-09T22:57:51.692Z,101058.00
2023-04-09T23:00:19.940Z,101056.00
2023-04-09T23:02:48.421Z,101058.00
2023-04-09T23:05:17.965Z,101054.00
2023-04-09T23:07:47.093Z,101061.00
2023-04-09T23:10:18.121Z,101068.00
2023-04-09T23:12:46.314Z,101060.00
2023-04-09T23:15:15.099Z,101056.00
2023-04-09T23:17:43.363Z,101059.00
2023-04-09T23:20:15.220Z,101062.00
2023-04-09T23:22:46.706Z,101070.00
2023-04-09T23:25:18.220Z,101076.00
2023-04-09T23:27:46.926Z,101075.00
2023-04-09T23:30:17.347Z,101065.00
2023-04-09T23:32:45.692Z,101071.00
2023-04-09T23:35:13.642Z,101061.00
2023-04-09T23:37:41.965Z,101061.00
2023-04-09T23:40:10.964Z,101059.00
2023-04-09T23:42:38.816Z,101061.00
2023-04-09T23:45:07.388Z,101049.00
2023-04-09T23:47:35.887Z,101051.00
2023-04-09T23:50:08.052Z,101054.00
2023-04-09T23:52:36.604Z,101047.00
2023-04-09T23:55:04.740Z,101045.00
2023-04-09T23:57:32.685Z,101049.00
